createdAt,value
2023-01-30T00:03:07.054Z,91
2023-01-30T00:08:13.184Z,90.5
2023-01-30T00:13:19.354Z,90
2023-01-30T00:18:25.446Z,90
2023-01-30T00:23:31.605Z,90.5
2023-01-30T00:28:37.856Z,90
2023-01-30T00:33:43.810Z,90
2023-01-30T00:38:49.129Z,90
2023-01-30T00:43:54.293Z,90
2023-01-30T00:54:06.512Z,91.5
2023-01-30T00:59:12.603Z,91
2023-01-30T01:04:18.690Z,90
2023-01-30T01:09:24.806Z,90.5
2023-01-30T01:14:30.864Z,90.5
2023-01-30T01:19:37.145Z,91.5
2023-01-30T01:24:43.244Z,91
2023-01-30T01:29:49.411Z,90
2023-01-30T01:34:55.562Z,90.5
2023-01-30T01:40:01.507Z,90.5
2023-01-30T01:45:07.733Z,91
2023-01-30T01:50:12.922Z,91
2023-01-30T02:00:25.198Z,92
2023-01-30T02:05:30.364Z,92
2023-01-30T02:10:35.307Z,91.5
2023-01-30T02:15:41.603Z,92
2023-01-30T02:20:47.722Z,92.5
2023-01-30T02:25:53.882Z,92
2023-01-30T02:30:59.949Z,92
2023-01-30T02:36:06.088Z,93
2023-01-30T02:41:12.195Z,93
2023-01-30T02:46:18.343Z,92.5
2023-01-30T02:51:24.526Z,92
2023-01-30T02:56:30.621Z,93
2023-01-30T03:01:36.783Z,92.5
2023-01-30T03:06:42.818Z,93
2023-01-30T03:11:48.060Z,93
2023-01-30T03:16:53.164Z,93.5
2023-01-30T03:21:58.315Z,93.5
2023-01-30T03:27:04.341Z,93.5
2023-01-30T03:32:10.439Z,93.5
2023-01-30T03:37:16.653Z,93.5
2023-01-30T03:42:22.780Z,94
2023-01-30T03:47:28.849Z,95
2023-01-30T03:52:35.067Z,95
2023-01-30T10:07:56.360Z,99.5
2023-01-30T10:13:02.684Z,99
2023-01-30T10:18:09.155Z,98
2023-01-30T10:23:15.442Z,97.5
2023-01-30T10:28:21.605Z,95.5
2023-01-30T10:33:28.089Z,93
2023-01-30T10:38:34.245Z,91.5
2023-01-30T10:43:40.706Z,91
2023-01-30T10:48:46.997Z,88
2023-01-30T10:53:53.226Z,90
2023-01-30T10:58:59.555Z,87.5
2023-01-30T11:04:05.936Z,89
2023-01-30T11:09:12.189Z,85.5
2023-01-30T11:14:18.595Z,83.5
2023-01-30T11:19:24.911Z,87
2023-01-30T11:24:31.319Z,92.5
2023-01-30T11:29:37.602Z,96
2023-01-30T11:34:43.998Z,99.5
2023-01-30T11:39:50.295Z,99.5
2023-01-30T11:44:56.623Z,99.5
2023-01-30T11:50:02.816Z,99.5
2023-01-30T11:55:09.113Z,99.5
2023-01-30T12:00:15.474Z,99
2023-01-30T12:05:21.893Z,99.5
2023-01-30T12:10:28.249Z,99.5
2023-01-30T12:15:34.529Z,99.5
2023-01-30T12:20:40.770Z,96.5
2023-01-30T12:25:47.069Z,95
2023-01-30T12:30:53.519Z,93.5
2023-01-30T12:35:59.728Z,96.5
2023-01-30T12:41:06.165Z,95.5
2023-01-30T12:46:12.557Z,97.5
2023-01-30T12:51:18.845Z,94.5
2023-01-30T12:56:25.118Z,94.5
2023-01-30T13:01:31.525Z,96.5
2023-01-30T13:06:37.756Z,92
2023-01-30T13:11:44.164Z,92
2023-01-30T13:16:50.367Z,91
2023-01-30T13:21:56.813Z,90.5
2023-01-30T13:27:03.161Z,89
2023-01-30T13:32:09.485Z,88
2023-01-30T13:37:15.778Z,89.5
2023-01-30T13:42:22.101Z,90
2023-01-30T13:47:28.417Z,94
2023-01-30T13:52:34.671Z,94.5
2023-01-30T13:57:41.193Z,97
2023-01-30T14:07:53.708Z,99.5
2023-01-30T14:13:00.098Z,99.5
2023-01-30T14:18:06.227Z,99.5
2023-01-30T14:28:18.994Z,99
2023-01-30T14:43:37.930Z,98.5
2023-01-30T14:48:44.353Z,98
2023-01-30T14:53:50.702Z,97
2023-01-30T14:58:56.926Z,96.5
2023-01-30T15:04:03.302Z,96
2023-01-30T15:09:09.636Z,96.5
2023-01-30T15:14:15.922Z,97
2023-01-30T15:24:27.761Z,99.5
2023-01-30T15:34:40.422Z,99
2023-01-30T15:39:46.742Z,99.5
2023-01-30T15:44:53.085Z,99.5
2023-01-30T15:49:59.360Z,99.5
2023-01-30T15:55:05.661Z,99.5
2023-01-30T16:00:12.026Z,99.5
2023-01-30T16:05:18.405Z,99.5
2023-01-30T16:30:49.088Z,98
2023-01-30T16:35:55.404Z,99
2023-01-30T16:41:01.765Z,98.5
2023-01-30T16:56:20.718Z,99
2023-01-30T17:01:26.954Z,98.5
2023-01-30T17:06:33.415Z,98.5
2023-01-30T17:16:46.091Z,97.5
2023-01-30T17:21:52.484Z,97.5
2023-01-30T17:26:58.568Z,97.5
2023-01-30T17:47:24.072Z,96.5
2023-01-30T17:57:36.707Z,95.5
